createdAt,value
2019-04-14T00:01:02.170Z,63.25
2019-04-14T00:03:50.090Z,63.31
2019-04-14T00:06:22.401Z,61.57
2019-04-14T00:08:52.304Z,60.53
2019-04-14T00:11:23.322Z,60.90
2019-04-14T00:13:54.457Z,59.90
2019-04-14T00:16:24.883Z,60.18
2019-04-14T00:18:55.538Z,58.96
2019-04-14T00:21:26.083Z,59.35
2019-04-14T00:23:56.634Z,59.43
2019-04-14T00:26:29.312Z,59.47
2019-04-14T00:28:59.936Z,59.40
2019-04-14T00:31:30.565Z,59.03
2019-04-14T00:34:01.357Z,58.93
2019-04-14T00:36:34.858Z,59.30
2019-04-14T00:39:05.418Z,58.64
2019-04-14T00:41:50.435Z,59.55
2019-04-14T00:44:16.844Z,58.76
2019-04-14T00:46:50.273Z,59.22
2019-04-14T00:49:20.012Z,60.50
2019-04-14T00:51:49.118Z,59.17
2019-04-14T00:54:18.176Z,59.54
2019-04-14T00:56:47.660Z,61.11
2019-04-14T00:59:17.619Z,61.60
2019-04-14T01:01:46.802Z,61.12
2019-04-14T01:04:18.743Z,61.13
2019-04-14T01:06:48.933Z,61.37
2019-04-14T01:09:17.980Z,61.56
2019-04-14T01:11:46.865Z,61.84
2019-04-14T01:14:16.898Z,62.37
2019-04-14T01:16:47.260Z,62.87
2019-04-14T01:19:17.639Z,62.58
2019-04-14T01:21:46.644Z,60.82
2019-04-14T01:24:16.352Z,61.01
2019-04-14T01:26:46.381Z,61.29
2019-04-14T01:29:16.491Z,62.68
2019-04-14T01:31:45.469Z,66.83
2019-04-14T01:34:15.172Z,63.82
2019-04-14T01:36:45.319Z,62.99
2019-04-14T01:39:15.456Z,64.40
2019-04-14T01:41:45.561Z,62.53
2019-04-14T01:44:15.565Z,63.67
2019-04-14T01:46:45.603Z,62.89
2019-04-14T01:49:15.698Z,61.92
2019-04-14T01:51:59.216Z,61.90
2019-04-14T01:54:40.935Z,61.63
2019-04-14T01:57:26.302Z,62.48
2019-04-14T01:59:55.295Z,64.03
2019-04-14T02:02:26.910Z,61.45
2019-04-14T02:04:56.045Z,61.87
2019-04-14T02:07:25.567Z,61.91
2019-04-14T02:09:55.370Z,62.00
2019-04-14T02:12:25.429Z,62.78
2019-04-14T02:14:54.682Z,62.95
2019-04-14T02:17:24.239Z,63.29
2019-04-14T02:19:54.532Z,64.29
2019-04-14T02:22:25.143Z,65.34
2019-04-14T02:24:54.911Z,65.27
2019-04-14T02:27:23.850Z,64.00
2019-04-14T02:29:53.839Z,63.81
2019-04-14T02:32:49.526Z,63.38
2019-04-14T02:35:20.937Z,62.58
2019-04-14T02:37:55.935Z,63.57
2019-04-14T02:40:27.303Z,64.34
2019-04-14T02:43:09.804Z,63.24
2019-04-14T02:45:31.725Z,62.85
2019-04-14T02:55:21.310Z,63.88
2019-04-14T02:57:52.835Z,65.09
2019-04-14T03:00:31.811Z,63.87
2019-04-14T03:02:59.295Z,63.56
2019-04-14T03:05:27.154Z,64.43
2019-04-14T03:07:59.973Z,65.12
2019-04-14T03:10:31.876Z,64.64
2019-04-14T03:13:09.309Z,65.27
2019-04-14T03:20:55.287Z,62.44
2019-04-14T03:23:36.565Z,62.66
2019-04-14T03:25:59.235Z,61.36
2019-04-14T03:38:36.499Z,52.34
2019-04-14T03:51:28.355Z,51.66
2019-04-14T03:53:32.078Z,53.18
2019-04-14T03:55:58.400Z,52.10
2019-04-14T03:58:22.642Z,51.52
2019-04-14T04:00:51.618Z,51.16
2019-04-14T04:03:21.681Z,53.45
2019-04-14T04:05:52.073Z,54.29
2019-04-14T04:08:22.259Z,52.63
2019-04-14T04:11:02.030Z,51.69
2019-04-14T04:13:32.273Z,52.30
2019-04-14T04:16:11.864Z,52.96
2019-04-14T04:18:50.890Z,52.85
2019-04-14T04:21:18.316Z,52.56
2019-04-14T04:23:55.432Z,52.17
2019-04-14T04:26:26.015Z,50.54
2019-04-14T04:29:13.609Z,50.78
2019-04-14T04:31:44.073Z,49.45
2019-04-14T04:34:16.175Z,48.43
2019-04-14T04:36:46.767Z,48.54
2019-04-14T04:39:17.196Z,47.96
2019-04-14T04:41:47.170Z,47.71
2019-04-14T04:44:16.208Z,47.71
2019-04-14T04:46:45.978Z,47.76
2019-04-14T04:49:20.903Z,48.29
2019-04-14T04:51:46.524Z,48.01
2019-04-14T04:54:16.743Z,48.29
2019-04-14T04:56:45.888Z,48.43
2019-04-14T04:59:14.959Z,47.64
2019-04-14T05:01:45.078Z,48.54
2019-04-14T05:04:15.328Z,48.96
2019-04-14T05:07:07.796Z,50.36
2019-04-14T05:09:40.509Z,50.09
2019-04-14T05:12:17.488Z,49.88
2019-04-14T05:14:54.486Z,49.59
2019-04-14T05:17:25.539Z,49.92
2019-04-14T05:19:54.547Z,50.03
2019-04-14T05:22:24.622Z,50.50
2019-04-14T05:24:54.954Z,50.34
2019-04-14T05:27:23.882Z,50.68
2019-04-14T05:29:53.638Z,50.62
2019-04-14T05:32:22.586Z,50.22
2019-04-14T05:34:52.186Z,49.89
2019-04-14T05:37:21.087Z,50.57
2019-04-14T05:39:50.502Z,50.31
2019-04-14T05:42:23.826Z,49.81
2019-04-14T05:44:50.114Z,49.26
2019-04-14T05:47:19.747Z,50.06
2019-04-14T05:49:52.705Z,49.98
2019-04-14T05:52:20.568Z,50.22
2019-04-14T05:54:49.570Z,49.98
2019-04-14T05:57:18.459Z,49.74
2019-04-14T05:59:48.396Z,49.12
2019-04-14T06:02:18.065Z,49.60
2019-04-14T06:04:48.186Z,50.16
2019-04-14T06:07:17.209Z,49.89
2019-04-14T06:09:46.091Z,49.42
2019-04-14T06:12:15.085Z,50.43
2019-04-14T06:14:44.078Z,50.46
2019-04-14T06:17:12.970Z,50.47
2019-04-14T06:19:41.860Z,49.59
2019-04-14T06:22:11.782Z,50.87
2019-04-14T06:24:40.667Z,52.29
2019-04-14T06:27:10.583Z,51.09
2019-04-14T06:29:39.478Z,50.23
2019-04-14T06:32:16.866Z,50.95
2019-04-14T06:34:47.291Z,50.40
2019-04-14T06:37:20.486Z,50.68
2019-04-14T06:39:53.778Z,50.33
2019-04-14T06:42:22.667Z,49.19
2019-04-14T06:44:51.560Z,48.16
2019-04-14T06:47:20.461Z,52.27
2019-04-14T06:49:49.572Z,49.09
2019-04-14T06:52:18.745Z,49.24
2019-04-14T06:54:47.992Z,49.38
2019-04-14T06:57:16.833Z,49.40
2019-04-14T06:59:45.730Z,48.64
2019-04-14T07:02:14.806Z,48.01
2019-04-14T07:04:45.251Z,48.63
2019-04-14T07:07:14.140Z,47.44
2019-04-14T07:09:43.036Z,47.36
2019-04-14T07:12:12.849Z,46.44
2019-04-14T07:14:41.939Z,46.93
2019-04-14T07:17:11.551Z,46.29
2019-04-14T07:19:40.541Z,46.28
2019-04-14T07:22:10.061Z,44.84
2019-04-14T07:24:39.042Z,45.07
2019-04-14T07:27:09.059Z,45.90
2019-04-14T07:29:45.222Z,44.03
2019-04-14T07:32:15.595Z,45.74
2019-04-14T07:35:02.561Z,44.45
2019-04-14T07:37:32.998Z,43.62
2019-04-14T07:40:03.419Z,43.09
2019-04-14T07:42:48.897Z,43.24
2019-04-14T07:45:35.611Z,43.71
2019-04-14T07:48:06.135Z,43.40
2019-04-14T07:50:36.564Z,44.89
2019-04-14T07:53:12.988Z,43.33
2019-04-14T07:55:46.325Z,42.75
2019-04-14T07:58:17.370Z,44.28
2019-04-14T08:00:47.800Z,45.23
2019-04-14T08:03:24.274Z,43.54
2019-04-14T08:05:53.153Z,42.76
2019-04-14T08:08:22.047Z,41.82
2019-04-14T08:10:50.942Z,42.38
2019-04-14T08:13:19.828Z,41.72
2019-04-14T08:15:48.926Z,41.56
2019-04-14T08:18:17.918Z,42.39
2019-04-14T08:20:46.807Z,41.82
2019-04-14T08:23:15.932Z,44.04
2019-04-14T08:25:44.897Z,41.87
2019-04-14T08:28:14.402Z,41.81
2019-04-14T08:30:43.407Z,42.32
2019-04-14T08:33:12.287Z,44.01
2019-04-14T08:35:41.178Z,41.27
2019-04-14T08:38:11.029Z,41.91
2019-04-14T08:40:40.097Z,41.68
2019-04-14T08:43:27.436Z,41.54
2019-04-14T08:45:57.842Z,42.30
2019-04-14T08:48:28.269Z,41.58
2019-04-14T08:50:58.693Z,42.48
2019-04-14T08:53:32.090Z,40.92
2019-04-14T08:56:02.722Z,41.88
2019-04-14T08:58:36.139Z,42.90
2019-04-14T09:01:06.617Z,43.72
2019-04-14T09:03:45.888Z,40.89
2019-04-14T09:06:16.431Z,42.11
2019-04-14T09:08:56.056Z,42.11
2019-04-14T09:11:26.484Z,43.51
2019-04-14T09:13:55.288Z,41.47
2019-04-14T09:16:24.161Z,42.66
2019-04-14T09:18:53.790Z,42.47
2019-04-14T09:21:22.763Z,44.79
2019-04-14T09:23:51.655Z,47.14
2019-04-14T09:26:20.650Z,43.36
2019-04-14T09:28:49.543Z,42.96
2019-04-14T09:31:18.434Z,43.05
2019-04-14T09:33:47.333Z,43.58
2019-04-14T09:36:16.215Z,42.56
2019-04-14T09:38:45.109Z,43.03
2019-04-14T09:41:14.003Z,44.80
2019-04-14T09:43:42.886Z,44.22
2019-04-14T09:46:12.598Z,41.37
2019-04-14T09:48:43.172Z,43.88
2019-04-14T09:51:12.739Z,45.21
2019-04-14T09:53:41.629Z,44.55
2019-04-14T09:56:10.824Z,42.80
2019-04-14T09:58:39.722Z,44.42
2019-04-14T10:01:09.610Z,48.13
2019-04-14T10:03:38.423Z,43.60
2019-04-14T10:06:08.538Z,43.48
2019-04-14T10:08:38.047Z,44.07
2019-04-14T10:11:06.939Z,45.04
2019-04-14T10:13:35.828Z,44.15
2019-04-14T10:16:04.823Z,46.12
2019-04-14T10:18:33.714Z,46.56
2019-04-14T10:21:02.605Z,45.06
2019-04-14T10:23:31.495Z,45.17
2019-04-14T10:26:00.390Z,45.91
2019-04-14T10:28:29.279Z,44.55
2019-04-14T10:30:58.170Z,43.51
2019-04-14T10:33:27.061Z,42.34
2019-04-14T10:35:56.055Z,44.05
2019-04-14T10:38:24.950Z,44.34
2019-04-14T10:40:53.839Z,45.41
2019-04-14T10:43:22.755Z,46.74
2019-04-14T10:45:51.620Z,43.57
2019-04-14T10:48:20.612Z,43.56
2019-04-14T10:50:49.508Z,44.21
2019-04-14T10:53:18.499Z,44.41
2019-04-14T10:55:47.396Z,44.44
2019-04-14T10:58:16.383Z,43.97
2019-04-14T11:00:45.274Z,44.38
2019-04-14T11:03:14.165Z,43.49
2019-04-14T11:05:53.706Z,49.36
2019-04-14T11:08:22.501Z,44.98
2019-04-14T11:10:52.922Z,43.88
2019-04-14T11:13:21.812Z,44.24
2019-04-14T11:15:50.702Z,44.60
2019-04-14T11:18:19.701Z,45.18
2019-04-14T11:20:48.589Z,46.67
2019-04-14T11:23:17.479Z,44.80
2019-04-14T11:25:46.372Z,44.50
2019-04-14T11:28:15.263Z,47.98
2019-04-14T11:30:44.152Z,43.60
2019-04-14T11:33:14.885Z,43.79
2019-04-14T11:35:46.544Z,44.39
2019-04-14T11:38:16.918Z,43.48
2019-04-14T11:40:47.398Z,44.42
2019-04-14T11:43:16.393Z,44.50
2019-04-14T11:45:45.282Z,43.07
2019-04-14T11:48:14.277Z,44.41
2019-04-14T11:50:43.271Z,42.41
2019-04-14T11:53:13.080Z,43.30
2019-04-14T11:55:43.326Z,44.26
2019-04-14T11:58:12.404Z,43.97
2019-04-14T12:00:55.018Z,42.53
2019-04-14T12:03:25.442Z,42.17
2019-04-14T12:05:58.947Z,43.04
2019-04-14T12:08:32.444Z,42.60
2019-04-14T12:11:01.330Z,42.15
2019-04-14T12:13:30.224Z,41.31
2019-04-14T12:15:59.113Z,40.97
2019-04-14T12:18:28.008Z,40.93
2019-04-14T12:20:56.898Z,39.46
2019-04-14T12:23:25.797Z,38.26
2019-04-14T12:26:04.725Z,41.19
2019-04-14T12:28:26.261Z,42.61
2019-04-14T12:30:55.591Z,40.35
2019-04-14T12:33:24.424Z,40.14
2019-04-14T12:35:53.722Z,38.71
2019-04-14T12:38:22.972Z,38.89
2019-04-14T12:40:52.443Z,39.36
2019-04-14T12:43:26.044Z,39.69
2019-04-14T12:46:13.158Z,39.48
2019-04-14T12:48:49.821Z,37.78
2019-04-14T12:51:26.413Z,39.17
2019-04-14T12:53:55.286Z,37.36
2019-04-14T12:56:25.712Z,38.43
2019-04-14T12:59:02.186Z,37.20
2019-04-14T13:01:48.886Z,37.42
2019-04-14T13:04:17.779Z,36.93
2019-04-14T13:06:46.673Z,36.40
2019-04-14T13:09:15.577Z,36.72
2019-04-14T13:11:44.453Z,39.42
2019-04-14T13:14:13.345Z,36.12
2019-04-14T13:16:42.396Z,36.13
2019-04-14T13:19:11.437Z,35.72
2019-04-14T13:21:40.566Z,36.76
2019-04-14T13:24:09.932Z,34.82
2019-04-14T13:26:38.928Z,34.90
2019-04-14T13:29:08.978Z,38.57
2019-04-14T13:31:37.848Z,36.50
2019-04-14T13:34:06.727Z,35.46
2019-04-14T13:36:35.625Z,36.48
2019-04-14T13:39:06.269Z,39.10
2019-04-14T13:41:35.965Z,38.55
2019-04-14T13:44:05.227Z,37.13
2019-04-14T13:46:34.160Z,37.35
2019-04-14T13:49:03.044Z,35.21
2019-04-14T13:51:31.934Z,34.63
2019-04-14T13:54:00.733Z,34.03
2019-04-14T13:56:29.610Z,34.61
2019-04-14T13:58:58.443Z,33.49
2019-04-14T14:01:27.241Z,36.40
2019-04-14T14:03:58.909Z,35.84
2019-04-14T14:06:27.750Z,35.55
2019-04-14T14:08:56.632Z,35.92
2019-04-14T14:11:43.547Z,36.88
2019-04-14T14:14:15.523Z,36.35
2019-04-14T14:17:02.320Z,36.92
2019-04-14T14:19:44.523Z,33.94
2019-04-14T14:22:14.951Z,33.14
2019-04-14T14:24:45.379Z,33.50
2019-04-14T14:27:14.371Z,33.59
2019-04-14T14:29:43.265Z,34.34
2019-04-14T14:32:19.632Z,32.65
2019-04-14T14:34:48.526Z,32.61
2019-04-14T14:37:17.516Z,32.16
2019-04-14T14:39:46.509Z,32.42
2019-04-14T14:42:15.403Z,32.70
2019-04-14T14:44:45.827Z,31.50
2019-04-14T14:47:16.256Z,31.07
2019-04-14T14:49:49.445Z,30.62
2019-04-14T14:52:19.872Z,30.41
2019-04-14T14:54:48.765Z,30.40
2019-04-14T14:57:17.760Z,28.94
2019-04-14T14:59:46.649Z,29.09
2019-04-14T15:02:15.643Z,33.00
2019-04-14T15:04:44.534Z,30.87
2019-04-14T15:07:13.425Z,31.58
2019-04-14T15:09:42.317Z,30.50
2019-04-14T15:12:13.462Z,29.56
2019-04-14T15:14:42.461Z,29.72
2019-04-14T15:17:11.553Z,28.59
2019-04-14T15:19:40.445Z,28.05
2019-04-14T15:22:10.255Z,29.23
2019-04-14T15:24:39.143Z,29.51
2019-04-14T15:27:09.165Z,29.75
2019-04-14T15:29:38.056Z,29.01
2019-04-14T15:32:06.893Z,30.17
2019-04-14T15:34:35.840Z,30.49
2019-04-14T15:37:04.635Z,32.05
2019-04-14T15:39:33.513Z,31.97
2019-04-14T15:42:02.410Z,30.45
2019-04-14T15:44:31.295Z,30.68
2019-04-14T15:47:00.188Z,31.26
2019-04-14T15:49:30.433Z,30.52
2019-04-14T15:51:59.301Z,31.34
2019-04-14T15:54:28.195Z,29.66
2019-04-14T15:57:04.663Z,31.01
2019-04-14T15:59:38.059Z,30.96
2019-04-14T16:02:11.324Z,33.28
2019-04-14T16:04:44.751Z,32.63
2019-04-14T16:07:31.562Z,32.59
2019-04-14T16:10:02.036Z,33.05
2019-04-14T16:12:47.777Z,34.01
2019-04-14T16:15:34.389Z,33.63
2019-04-14T16:18:16.892Z,33.63
2019-04-14T16:20:46.605Z,34.19
2019-04-14T16:23:15.607Z,34.45
2019-04-14T16:25:52.064Z,34.63
2019-04-14T16:28:22.493Z,34.30
2019-04-14T16:31:09.008Z,34.65
2019-04-14T16:33:39.533Z,35.05
2019-04-14T16:36:09.379Z,35.43
2019-04-14T16:38:38.233Z,36.03
2019-04-14T16:41:07.122Z,36.25
2019-04-14T16:43:36.012Z,35.65
2019-04-14T16:46:04.908Z,35.81
2019-04-14T16:48:33.804Z,35.80
2019-04-14T16:51:03.408Z,37.08
2019-04-14T16:53:33.931Z,37.19
2019-04-14T16:56:04.469Z,37.70
2019-04-14T16:58:37.863Z,37.13
2019-04-14T17:01:08.516Z,37.25
2019-04-14T17:03:37.315Z,36.80
2019-04-14T17:06:07.605Z,34.75
2019-04-14T17:08:37.112Z,36.59
2019-04-14T17:11:06.293Z,36.29
2019-04-14T17:13:36.682Z,36.83
2019-04-14T17:16:08.203Z,37.44
2019-04-14T17:18:44.354Z,36.72
2019-04-14T17:21:29.828Z,37.20
2019-04-14T17:24:10.641Z,38.46
2019-04-14T17:26:35.552Z,41.46
2019-04-14T17:29:06.034Z,41.98
2019-04-14T17:31:52.428Z,42.29
2019-04-14T17:34:38.937Z,44.24
2019-04-14T17:37:26.358Z,46.05
2019-04-14T17:40:08.770Z,44.73
2019-04-14T17:42:39.195Z,44.68
2019-04-14T17:45:17.247Z,44.79
2019-04-14T17:47:53.464Z,44.41
2019-04-14T17:50:41.295Z,45.03
2019-04-14T17:53:15.824Z,45.01
2019-04-14T17:55:52.316Z,45.46
2019-04-14T17:58:26.002Z,46.13
2019-04-14T18:01:12.302Z,46.29
2019-04-14T18:03:51.835Z,47.62
2019-04-14T18:06:24.339Z,47.47
2019-04-14T18:09:00.573Z,48.57
2019-04-14T18:11:31.003Z,49.84
2019-04-14T18:14:04.645Z,50.40
2019-04-14T18:16:35.237Z,49.87
2019-04-14T18:19:17.949Z,51.65
2019-04-14T18:21:46.843Z,51.25
2019-04-14T18:24:15.643Z,50.87
2019-04-14T18:26:44.523Z,51.00
2019-04-14T18:29:27.348Z,52.40
2019-04-14T18:31:57.769Z,52.40
2019-04-14T18:34:28.235Z,53.57
2019-04-14T18:36:58.723Z,52.74
2019-04-14T18:39:32.323Z,54.15
2019-04-14T18:42:18.736Z,54.15
2019-04-14T18:44:54.888Z,54.49
2019-04-14T18:47:41.257Z,54.76
2019-04-14T18:50:12.503Z,54.42
2019-04-14T18:53:01.397Z,54.05
2019-04-14T18:55:37.760Z,53.77
2019-04-14T18:58:23.451Z,54.40
2019-04-14T19:01:03.195Z,55.51
2019-04-14T19:03:32.188Z,56.86
2019-04-14T19:06:01.179Z,55.32
2019-04-14T19:08:30.071Z,55.79
2019-04-14T19:11:00.703Z,55.83
2019-04-14T19:13:31.136Z,54.94
2019-04-14T19:16:07.499Z,55.29
2019-04-14T19:18:40.738Z,56.15
2019-04-14T19:21:14.293Z,56.25
2019-04-14T19:23:46.198Z,55.83
2019-04-14T19:26:13.816Z,57.02
2019-04-14T19:28:42.707Z,57.11
2019-04-14T19:31:12.003Z,57.67
2019-04-14T19:33:40.899Z,57.27
2019-04-14T19:36:10.710Z,56.84
2019-04-14T19:38:39.602Z,57.73
2019-04-14T19:41:09.517Z,57.54
2019-04-14T19:43:38.407Z,57.96
2019-04-14T19:46:07.400Z,59.14
2019-04-14T19:48:36.397Z,58.98
2019-04-14T19:51:05.389Z,59.07
2019-04-14T19:53:34.403Z,59.45
2019-04-14T19:56:03.272Z,59.44
2019-04-14T19:58:32.164Z,59.31
2019-04-14T20:01:01.055Z,58.99
2019-04-14T20:03:29.944Z,59.67
2019-04-14T20:05:58.839Z,59.34
2019-04-14T20:08:27.833Z,59.88
2019-04-14T20:10:56.824Z,60.26
2019-04-14T20:13:27.560Z,60.10
2019-04-14T20:16:03.925Z,60.27
2019-04-14T20:18:50.940Z,60.67
2019-04-14T20:21:40.314Z,59.93
2019-04-14T20:24:11.353Z,58.87
2019-04-14T20:26:41.783Z,60.46
2019-04-14T20:29:12.620Z,61.20
2019-04-14T20:31:48.893Z,59.73
2019-04-14T20:34:17.775Z,59.95
2019-04-14T20:36:46.667Z,59.46
2019-04-14T20:39:16.069Z,60.04
2019-04-14T20:41:45.067Z,59.47
2019-04-14T20:44:14.265Z,59.26
2019-04-14T20:46:43.154Z,59.50
2019-04-14T20:49:14.006Z,60.22
2019-04-14T20:51:42.990Z,59.59
2019-04-14T20:54:13.004Z,60.30
2019-04-14T20:56:41.895Z,62.82
2019-04-14T20:59:11.601Z,62.82
2019-04-14T21:01:42.028Z,60.72
2019-04-14T21:04:25.678Z,62.17
2019-04-14T21:07:02.142Z,60.34
2019-04-14T21:09:35.173Z,60.63
2019-04-14T21:12:11.778Z,61.99
2019-04-14T21:14:48.572Z,61.94
2019-04-14T21:17:19.112Z,61.98
2019-04-14T21:19:49.531Z,61.04
2019-04-14T21:22:20.016Z,62.96
2019-04-14T21:24:59.501Z,62.07
2019-04-14T21:27:35.844Z,63.41
2019-04-14T21:30:09.136Z,63.48
2019-04-14T21:32:58.123Z,63.70
2019-04-14T21:35:28.599Z,62.98
2019-04-14T21:37:59.294Z,62.88
2019-04-14T21:40:47.835Z,63.57
2019-04-14T21:43:16.890Z,63.27
2019-04-14T21:45:45.922Z,63.64
2019-04-14T21:48:14.941Z,63.51
2019-04-14T21:50:43.806Z,64.02
2019-04-14T21:53:12.799Z,64.04
2019-04-14T21:55:41.690Z,64.92
2019-04-14T21:58:18.287Z,64.71
2019-04-14T22:01:06.507Z,64.30
2019-04-14T22:03:37.071Z,64.75
2019-04-14T22:06:13.272Z,64.48
2019-04-14T22:08:52.535Z,63.45
2019-04-14T22:11:23.176Z,65.01
2019-04-14T22:13:52.162Z,66.85
2019-04-14T22:16:21.052Z,64.88
2019-04-14T22:18:49.945Z,64.53
2019-04-14T22:21:18.834Z,65.49
2019-04-14T22:24:00.370Z,65.31
2019-04-14T22:26:25.912Z,65.47
2019-04-14T22:28:49.090Z,64.91
2019-04-14T22:31:18.091Z,65.40
2019-04-14T22:33:49.435Z,65.58
2019-04-14T22:36:18.329Z,65.56
2019-04-14T22:38:47.217Z,65.10
2019-04-14T22:41:16.112Z,64.91
2019-04-14T22:43:45.001Z,64.61
2019-04-14T22:46:15.531Z,64.64
2019-04-14T22:48:44.572Z,65.47
2019-04-14T22:51:13.413Z,65.20
2019-04-14T22:53:42.307Z,64.40
2019-04-14T22:56:11.913Z,65.67
2019-04-14T22:58:40.805Z,66.51
2019-04-14T23:01:11.744Z,65.67
2019-04-14T23:03:58.656Z,66.62
2019-04-14T23:06:41.372Z,67.15
2019-04-14T23:09:28.182Z,67.13
2019-04-14T23:11:58.612Z,68.01
2019-04-14T23:14:32.008Z,66.82
2019-04-14T23:17:20.458Z,66.15
2019-04-14T23:20:00.206Z,66.88
2019-04-14T23:22:47.015Z,65.86
2019-04-14T23:25:16.006Z,66.98
2019-04-14T23:27:44.899Z,67.31
2019-04-14T23:30:14.719Z,67.75
2019-04-14T23:32:43.603Z,67.92
2019-04-14T23:35:13.212Z,67.25
2019-04-14T23:37:42.101Z,68.89
2019-04-14T23:40:13.383Z,69.66
2019-04-14T23:42:42.240Z,68.64
2019-04-14T23:45:11.643Z,68.44
2019-04-14T23:47:40.535Z,69.79
2019-04-14T23:50:09.925Z,69.35
2019-04-14T23:52:38.929Z,68.95
2019-04-14T23:55:08.538Z,70.93
2019-04-14T23:57:37.431Z,70.46
